createdAt,value
2022-10-22T00:01:09.665Z,2.10
2022-10-22T00:03:37.914Z,2.10
2022-10-22T00:06:06.549Z,2.10
2022-10-22T00:08:34.625Z,2.20
2022-10-22T00:11:09.029Z,2.40
2022-10-22T00:13:38.766Z,2.50
2022-10-22T00:16:07.527Z,2.50
2022-10-22T00:18:35.626Z,2.50
2022-10-22T00:21:03.983Z,2.50
2022-10-22T00:23:32.122Z,2.50
2022-10-22T00:26:00.446Z,2.70
2022-10-22T00:28:28.704Z,2.80
2022-10-22T00:30:59.194Z,3.00
2022-10-22T00:33:27.581Z,3.00
2022-10-22T00:35:56.013Z,3.00
2022-10-22T00:38:24.186Z,3.10
2022-10-22T00:40:52.469Z,3.10
2022-10-22T00:43:21.348Z,3.10
2022-10-22T00:45:49.546Z,3.20
2022-10-22T00:48:20.351Z,3.40
2022-10-22T00:50:49.924Z,3.50
2022-10-22T00:53:19.550Z,3.60
2022-10-22T00:55:49.165Z,3.70
2022-10-22T00:58:17.543Z,4.00
2022-10-22T01:00:46.011Z,3.90
2022-10-22T01:03:14.957Z,3.90
2022-10-22T01:05:45.660Z,4.70
2022-10-22T01:08:23.478Z,4.60
2022-10-22T01:10:58.261Z,4.30
2022-10-22T01:13:31.194Z,4.10
2022-10-22T01:16:07.398Z,4.40
2022-10-22T01:18:37.986Z,4.30
2022-10-22T01:21:15.059Z,4.40
2022-10-22T01:24:03.794Z,4.50
2022-10-22T01:26:39.107Z,4.50
2022-10-22T01:29:12.130Z,4.60
2022-10-22T01:31:44.534Z,4.60
2022-10-22T01:34:13.582Z,4.60
2022-10-22T01:36:42.199Z,4.60
2022-10-22T01:39:10.570Z,4.50
2022-10-22T01:41:40.518Z,4.60
2022-10-22T01:44:23.794Z,4.60
2022-10-22T01:46:53.070Z,4.70
2022-10-22T01:49:25.481Z,4.70
2022-10-22T01:51:57.705Z,4.80
2022-10-22T01:54:33.390Z,4.70
2022-10-22T01:57:08.487Z,4.70
2022-10-22T01:59:43.710Z,4.80
2022-10-22T02:02:14.077Z,5.00
2022-10-22T02:04:44.724Z,5.10
2022-10-22T02:07:14.147Z,5.00
2022-10-22T02:09:43.113Z,5.00
2022-10-22T02:12:15.018Z,5.10
2022-10-22T02:14:45.291Z,5.10
2022-10-22T02:17:18.286Z,5.10
2022-10-22T02:19:49.481Z,5.10
2022-10-22T02:22:17.614Z,5.40
2022-10-22T02:24:45.789Z,5.50
2022-10-22T02:27:16.839Z,5.40
2022-10-22T02:29:49.275Z,5.30
2022-10-22T02:32:19.380Z,5.20
2022-10-22T02:34:48.010Z,5.30
2022-10-22T02:37:16.490Z,5.20
2022-10-22T02:39:45.102Z,5.30
2022-10-22T02:42:13.540Z,5.50
2022-10-22T02:44:41.589Z,5.60
2022-10-22T02:47:11.266Z,5.50
2022-10-22T02:49:39.391Z,5.40
2022-10-22T02:52:07.531Z,5.30
2022-10-22T02:54:35.870Z,5.20
2022-10-22T02:57:04.081Z,5.30
2022-10-22T02:59:32.347Z,5.30
2022-10-22T03:02:00.393Z,5.30
2022-10-22T03:04:32.577Z,5.40
2022-10-22T03:07:00.866Z,5.40
2022-10-22T03:09:29.043Z,5.40
2022-10-22T03:11:57.227Z,5.30
2022-10-22T03:14:25.273Z,5.40
2022-10-22T03:16:53.379Z,5.50
2022-10-22T03:19:21.471Z,5.50
2022-10-22T03:21:51.994Z,5.70
2022-10-22T03:24:22.993Z,5.50
2022-10-22T03:26:51.745Z,5.30
2022-10-22T03:29:20.610Z,5.40
2022-10-22T03:31:48.741Z,5.50
2022-10-22T03:34:16.841Z,5.60
2022-10-22T03:36:45.023Z,6.00
2022-10-22T03:39:15.647Z,5.60
2022-10-22T03:41:44.474Z,5.50
2022-10-22T03:44:12.841Z,5.50
2022-10-22T03:46:40.883Z,5.50
2022-10-22T03:49:09.195Z,5.50
2022-10-22T03:51:37.253Z,5.40
2022-10-22T03:54:05.487Z,5.30
2022-10-22T03:56:35.271Z,5.40
2022-10-22T03:59:03.616Z,5.30
2022-10-22T04:01:32.186Z,5.20
2022-10-22T04:04:01.021Z,5.10
2022-10-22T04:06:30.430Z,5.20
2022-10-22T04:09:01.421Z,5.10
2022-10-22T04:11:29.738Z,5.10
2022-10-22T04:13:59.182Z,5.10
2022-10-22T04:16:31.073Z,5.10
2022-10-22T04:18:59.602Z,5.10
2022-10-22T04:21:27.692Z,5.10
2022-10-22T04:23:55.854Z,5.10
2022-10-22T04:26:23.959Z,5.10
2022-10-22T04:28:53.229Z,5.10
2022-10-22T04:31:24.339Z,5.00
2022-10-22T04:33:54.169Z,5.00
2022-10-22T04:36:22.286Z,4.90
2022-10-22T04:38:54.339Z,4.80
2022-10-22T04:41:24.044Z,4.70
2022-10-22T04:43:52.417Z,4.40
2022-10-22T04:46:22.505Z,4.60
2022-10-22T04:48:52.210Z,4.60
2022-10-22T04:51:21.139Z,4.50
2022-10-22T04:53:49.802Z,4.40
2022-10-22T04:56:20.775Z,4.40
2022-10-22T04:58:49.202Z,4.30
2022-10-22T05:01:18.605Z,4.30
2022-10-22T05:03:48.447Z,4.20
2022-10-22T05:06:17.170Z,4.10
2022-10-22T05:08:48.118Z,4.00
2022-10-22T05:11:18.001Z,3.90
2022-10-22T05:13:46.537Z,3.90
2022-10-22T05:16:14.913Z,3.90
2022-10-22T05:18:43.848Z,3.90
2022-10-22T05:21:14.536Z,3.90
2022-10-22T05:23:42.841Z,3.90
2022-10-22T05:26:11.837Z,3.80
2022-10-22T05:28:40.342Z,3.80
2022-10-22T05:31:10.361Z,3.80
2022-10-22T05:33:38.488Z,3.90
2022-10-22T05:36:07.697Z,3.90
2022-10-22T05:38:37.460Z,3.80
2022-10-22T05:41:06.977Z,3.70
2022-10-22T05:43:35.513Z,3.60
2022-10-22T05:46:04.535Z,3.60
2022-10-22T05:51:06.484Z,3.70
2022-10-22T05:53:35.436Z,3.80
2022-10-22T05:56:05.761Z,3.70
2022-10-22T05:58:34.196Z,3.70
2022-10-22T06:01:03.164Z,3.70
2022-10-22T06:03:31.933Z,3.80
2022-10-22T06:06:01.620Z,3.80
2022-10-22T06:08:30.440Z,3.80
2022-10-22T06:10:58.749Z,3.90
2022-10-22T06:13:28.274Z,4.00
2022-10-22T06:15:56.591Z,4.10
2022-10-22T06:18:24.666Z,4.10
2022-10-22T06:20:52.925Z,4.00
2022-10-22T06:23:20.997Z,4.10
2022-10-22T06:25:57.316Z,4.20
2022-10-22T06:28:25.521Z,4.40
2022-10-22T06:30:55.099Z,4.30
2022-10-22T06:33:23.161Z,4.40
2022-10-22T06:35:51.331Z,4.60
2022-10-22T06:38:19.485Z,4.60
2022-10-22T06:40:50.100Z,4.70
2022-10-22T06:43:18.164Z,4.80
2022-10-22T06:45:46.382Z,4.90
2022-10-22T06:48:15.851Z,4.70
2022-10-22T06:50:43.878Z,4.70
2022-10-22T06:53:11.990Z,4.80
2022-10-22T06:55:40.134Z,4.90
2022-10-22T06:58:08.177Z,5.00
2022-10-22T07:00:36.324Z,5.10
2022-10-22T07:03:04.418Z,5.00
2022-10-22T07:05:34.978Z,5.10
2022-10-22T07:08:03.079Z,5.00
2022-10-22T07:10:31.373Z,5.00
2022-10-22T07:12:59.721Z,5.10
2022-10-22T07:15:27.801Z,5.20
2022-10-22T07:17:55.980Z,5.20
2022-10-22T07:20:24.134Z,5.40
2022-10-22T07:22:53.785Z,5.50
2022-10-22T07:25:21.831Z,5.60
2022-10-22T07:27:50.027Z,5.60
2022-10-22T07:30:18.210Z,5.70
2022-10-22T07:32:46.274Z,5.80
2022-10-22T07:35:16.597Z,6.00
2022-10-22T07:37:44.840Z,6.20
2022-10-22T07:40:14.719Z,6.40
2022-10-22T07:42:42.734Z,6.40
2022-10-22T07:45:11.167Z,6.50
2022-10-22T07:47:39.483Z,6.50
2022-10-22T07:50:08.574Z,6.40
2022-10-22T07:52:37.031Z,6.40
2022-10-22T07:55:05.486Z,6.60
2022-10-22T07:57:35.107Z,6.60
2022-10-22T08:00:03.152Z,6.70
2022-10-22T08:02:31.430Z,6.80
2022-10-22T08:04:59.567Z,6.90
2022-10-22T08:07:27.832Z,7.00
2022-10-22T08:09:55.998Z,7.10
2022-10-22T08:12:24.301Z,7.10
2022-10-22T08:14:54.104Z,7.30
2022-10-22T08:17:24.535Z,7.50
2022-10-22T08:19:52.601Z,7.50
2022-10-22T08:22:20.871Z,7.50
2022-10-22T08:24:48.994Z,7.60
2022-10-22T08:27:17.254Z,7.70
2022-10-22T08:29:45.337Z,7.80
2022-10-22T08:32:14.972Z,7.80
2022-10-22T08:34:43.093Z,7.90
2022-10-22T08:37:14.485Z,7.80
2022-10-22T08:39:42.611Z,7.80
2022-10-22T08:42:18.845Z,7.80
2022-10-22T08:45:01.731Z,7.80
2022-10-22T08:47:42.802Z,7.80
2022-10-22T08:50:13.345Z,7.80
2022-10-22T08:52:42.795Z,7.90
2022-10-22T08:55:14.974Z,7.90
2022-10-22T08:57:49.972Z,8.00
2022-10-22T09:00:22.936Z,8.10
2022-10-22T09:03:02.092Z,8.20
2022-10-22T09:05:34.875Z,8.30
2022-10-22T09:08:03.313Z,8.30
2022-10-22T09:10:34.453Z,8.40
2022-10-22T09:13:02.541Z,8.40
2022-10-22T09:15:31.499Z,8.40
2022-10-22T12:32:14.145Z,9.20
2022-10-22T12:34:46.920Z,9.10
2022-10-22T12:37:15.667Z,9.00
2022-10-22T12:39:43.950Z,9.00
2022-10-22T12:42:14.414Z,9.00
2022-10-22T12:44:42.666Z,8.90
2022-10-22T12:47:16.617Z,8.90
2022-10-22T12:49:47.082Z,8.90
2022-10-22T12:52:17.063Z,8.90
2022-10-22T12:54:46.671Z,8.90
2022-10-22T12:57:15.848Z,8.90
2022-10-22T12:59:48.882Z,8.90
2022-10-22T13:02:22.615Z,8.90
2022-10-22T13:05:16.407Z,8.80
2022-10-22T13:07:45.594Z,8.80
2022-10-22T13:10:17.014Z,8.80
2022-10-22T13:12:46.126Z,8.80
2022-10-22T13:15:21.822Z,8.80
2022-10-22T13:17:51.279Z,8.80
2022-10-22T13:20:21.623Z,8.80
2022-10-22T13:23:00.451Z,8.80
2022-10-22T13:25:30.610Z,8.80
2022-10-22T13:27:59.688Z,8.80
2022-10-22T13:30:29.079Z,8.80
2022-10-22T13:33:01.146Z,8.80
2022-10-22T13:35:30.761Z,8.70
2022-10-22T13:37:58.826Z,8.70
2022-10-22T13:40:27.154Z,8.70
2022-10-22T13:42:55.223Z,8.70
2022-10-22T13:45:25.167Z,8.70
2022-10-22T13:47:54.069Z,8.70
2022-10-22T13:50:23.845Z,8.60
2022-10-22T13:52:53.065Z,8.60
2022-10-22T13:55:22.290Z,8.60
2022-10-22T13:57:50.807Z,8.60
2022-10-22T14:00:19.918Z,8.60
2022-10-22T14:02:49.274Z,8.60
2022-10-22T14:05:18.071Z,8.60
2022-10-22T14:07:49.968Z,8.60
2022-10-22T14:10:19.575Z,8.60
2022-10-22T14:12:52.361Z,8.50
2022-10-22T14:15:22.501Z,8.50
2022-10-22T14:17:54.567Z,8.50
2022-10-22T14:20:23.471Z,8.50
2022-10-22T14:22:53.313Z,8.50
2022-10-22T14:25:22.423Z,8.50
2022-10-22T14:27:50.578Z,8.50
2022-10-22T14:30:19.899Z,8.50
2022-10-22T14:32:48.978Z,8.50
2022-10-22T14:35:17.828Z,8.40
2022-10-22T14:37:45.933Z,8.40
2022-10-22T14:40:16.587Z,8.40
2022-10-22T14:42:45.442Z,8.30
2022-10-22T14:45:15.318Z,8.30
2022-10-22T14:47:43.400Z,8.30
2022-10-22T14:50:14.096Z,8.30
2022-10-22T14:52:43.895Z,8.30
2022-10-22T14:55:13.034Z,8.30
2022-10-22T14:57:42.751Z,8.20
2022-10-22T15:00:12.678Z,8.20
2022-10-22T15:02:41.252Z,8.20
2022-10-22T15:05:09.679Z,8.20
2022-10-22T15:07:38.571Z,8.20
2022-10-22T15:10:07.753Z,8.20
2022-10-22T15:12:36.129Z,8.10
2022-10-22T15:15:06.162Z,8.10
2022-10-22T15:17:34.350Z,8.10
2022-10-22T15:20:04.328Z,8.10
2022-10-22T15:22:35.322Z,8.10
2022-10-22T15:25:04.782Z,8.00
2022-10-22T15:27:32.920Z,8.00
2022-10-22T15:32:38.278Z,8.00
2022-10-22T15:35:08.329Z,8.00
2022-10-22T15:37:37.950Z,7.90
2022-10-22T15:40:08.042Z,7.90
2022-10-22T15:42:36.282Z,7.90
2022-10-22T15:45:04.390Z,7.90
2022-10-22T15:47:32.713Z,7.80
2022-10-22T15:50:04.757Z,7.90
2022-10-22T15:52:33.021Z,7.80
2022-10-22T15:55:04.266Z,7.80
2022-10-22T15:57:34.297Z,7.80
2022-10-22T16:00:02.352Z,7.80
2022-10-22T16:02:30.502Z,7.80
2022-10-22T16:05:01.051Z,7.70
2022-10-22T16:07:30.752Z,7.70
2022-10-22T16:10:00.060Z,7.70
2022-10-22T16:12:28.239Z,7.70
2022-10-22T16:14:56.326Z,7.70
2022-10-22T16:17:24.548Z,7.70
2022-10-22T16:19:52.630Z,7.70
2022-10-22T16:22:20.757Z,7.70
2022-10-22T16:24:50.474Z,7.70
2022-10-22T16:27:18.538Z,7.70
2022-10-22T16:29:46.910Z,7.70
2022-10-22T16:32:16.694Z,7.70
2022-10-22T16:34:44.747Z,7.80
2022-10-22T16:37:13.051Z,7.80
2022-10-22T16:39:41.183Z,7.80
2022-10-22T16:42:10.725Z,7.80
2022-10-22T16:44:38.784Z,7.80
2022-10-22T16:47:07.031Z,7.80
2022-10-22T16:49:35.157Z,7.80
2022-10-22T16:52:03.318Z,7.80
2022-10-22T16:54:31.541Z,7.80
2022-10-22T16:56:59.791Z,7.80
2022-10-22T16:59:29.208Z,7.80
2022-10-22T17:01:59.406Z,7.80
2022-10-22T17:04:27.564Z,7.80
2022-10-22T17:06:55.671Z,7.80
2022-10-22T17:09:24.382Z,7.90
2022-10-22T17:11:52.418Z,7.80
2022-10-22T17:14:20.479Z,7.80
2022-10-22T17:16:53.863Z,7.80
2022-10-22T17:19:22.174Z,7.80
2022-10-22T17:21:51.479Z,7.80
2022-10-22T17:24:19.662Z,7.80
2022-10-22T17:26:48.623Z,7.80
2022-10-22T17:29:16.916Z,7.80
2022-10-22T17:31:45.226Z,7.80
2022-10-22T17:34:16.685Z,7.80
2022-10-22T17:36:45.034Z,7.80
2022-10-22T17:39:14.966Z,7.80
2022-10-22T17:41:43.019Z,7.80
2022-10-22T17:44:12.425Z,7.80
2022-10-22T17:46:40.514Z,7.80
2022-10-22T17:49:13.682Z,7.80
2022-10-22T17:51:43.256Z,7.80
2022-10-22T17:54:11.491Z,7.80
2022-10-22T17:56:40.416Z,7.80
2022-10-22T17:59:09.075Z,7.80
2022-10-22T18:01:40.317Z,7.80
2022-10-22T18:04:09.304Z,7.70
2022-10-22T18:06:38.286Z,7.70
2022-10-22T18:09:08.805Z,7.80
2022-10-22T18:11:37.471Z,7.70
2022-10-22T18:14:05.884Z,7.70
2022-10-22T18:16:33.979Z,7.70
2022-10-22T18:19:02.317Z,7.70
2022-10-22T18:21:31.462Z,7.60
2022-10-22T18:24:01.787Z,7.70
2022-10-22T18:26:31.254Z,7.70
2022-10-22T18:28:59.816Z,7.70
2022-10-22T18:31:28.628Z,7.70
2022-10-22T18:34:00.049Z,7.70
2022-10-22T18:36:28.480Z,7.60
2022-10-22T18:38:57.479Z,7.70
2022-10-22T18:41:25.752Z,7.70
2022-10-22T18:43:55.940Z,7.60
2022-10-22T18:46:24.299Z,7.60
2022-10-22T18:48:53.870Z,7.60
2022-10-22T18:51:22.264Z,7.60
2022-10-22T18:54:04.575Z,7.60
2022-10-22T18:56:33.747Z,7.60
2022-10-22T18:59:03.218Z,7.60
2022-10-22T19:01:31.591Z,7.60
2022-10-22T19:03:59.730Z,7.60
2022-10-22T19:06:32.287Z,7.60
2022-10-22T19:09:04.060Z,7.60
2022-10-22T19:11:32.223Z,7.60
2022-10-22T19:14:00.398Z,7.50
2022-10-22T19:16:30.018Z,7.60
2022-10-22T19:19:01.278Z,7.60
2022-10-22T19:21:29.375Z,7.60
2022-10-22T19:23:57.880Z,7.60
2022-10-22T19:26:29.580Z,7.60
2022-10-22T19:28:58.227Z,7.60
2022-10-22T19:31:31.432Z,7.60
2022-10-22T19:34:01.690Z,7.60
2022-10-22T19:36:30.558Z,7.60
2022-10-22T19:38:59.121Z,7.60
2022-10-22T19:41:28.523Z,7.60
2022-10-22T19:43:57.325Z,7.50
2022-10-22T19:46:26.857Z,7.50
2022-10-22T19:49:00.557Z,7.50
2022-10-22T19:51:31.637Z,7.50
2022-10-22T19:54:01.045Z,7.50
2022-10-22T19:56:29.675Z,7.50
2022-10-22T19:58:57.871Z,7.50
2022-10-22T20:01:26.466Z,7.50
2022-10-22T20:03:54.964Z,7.50
2022-10-22T20:06:23.328Z,7.50
2022-10-22T20:08:55.956Z,7.50
2022-10-22T20:11:25.881Z,7.50
2022-10-22T20:13:54.515Z,7.40
2022-10-22T20:16:24.526Z,7.40
2022-10-22T20:18:52.924Z,7.50
2022-10-22T20:21:21.402Z,7.50
2022-10-22T20:24:01.553Z,7.50
2022-10-22T20:26:31.826Z,7.50
2022-10-22T20:29:00.360Z,7.50
2022-10-22T20:31:29.521Z,7.50
2022-10-22T20:33:57.998Z,7.50
2022-10-22T20:36:26.952Z,7.50
2022-10-22T20:38:59.431Z,7.40
2022-10-22T20:41:32.537Z,7.40
2022-10-22T20:44:02.390Z,7.40
2022-10-22T20:46:31.076Z,7.40
2022-10-22T20:49:01.409Z,7.40
2022-10-22T20:51:29.448Z,7.50
2022-10-22T20:53:57.478Z,7.40
2022-10-22T20:56:25.811Z,7.40
2022-10-22T20:58:56.678Z,7.50
2022-10-22T21:01:28.897Z,7.50
2022-10-22T21:03:57.018Z,7.40
2022-10-22T21:06:25.206Z,7.40
2022-10-22T21:08:53.421Z,7.50
2022-10-22T21:11:25.538Z,7.40
2022-10-22T21:13:53.616Z,7.40
2022-10-22T21:16:22.006Z,7.50
2022-10-22T21:18:51.514Z,7.40
2022-10-22T21:21:20.127Z,7.40
2022-10-22T21:23:50.307Z,7.40
2022-10-22T21:26:18.710Z,7.40
2022-10-22T21:28:46.954Z,7.40
2022-10-22T21:31:21.553Z,7.40
2022-10-22T21:33:51.445Z,7.40
2022-10-22T21:36:22.706Z,7.40
2022-10-22T21:38:51.504Z,7.40
2022-10-22T21:41:22.717Z,7.40
2022-10-22T21:43:51.326Z,7.40
2022-10-22T21:46:20.676Z,7.40
2022-10-22T21:48:49.166Z,7.40
2022-10-22T21:51:19.697Z,7.30
2022-10-22T21:53:48.166Z,7.40
2022-10-22T21:56:17.132Z,7.30
2022-10-22T21:58:45.547Z,7.40
2022-10-22T22:01:14.680Z,7.30
2022-10-22T22:03:43.083Z,7.30
2022-10-22T22:06:11.623Z,7.30
2022-10-22T22:08:41.146Z,7.30
2022-10-22T22:11:10.702Z,7.30
2022-10-22T22:13:39.082Z,7.30
2022-10-22T22:16:08.918Z,7.30
2022-10-22T22:18:37.577Z,7.30
2022-10-22T22:21:06.201Z,7.30
2022-10-22T22:23:34.406Z,7.30
2022-10-22T22:26:04.425Z,7.20
2022-10-22T22:28:32.885Z,7.20
2022-10-22T22:31:00.978Z,7.20
2022-10-22T22:33:29.324Z,7.20
2022-10-22T22:35:59.905Z,7.20
2022-10-22T22:38:28.090Z,7.20
2022-10-22T22:40:56.155Z,7.20
2022-10-22T22:43:25.589Z,7.20
2022-10-22T22:45:59.906Z,7.10
2022-10-22T22:48:28.142Z,7.10
2022-10-22T22:50:56.205Z,7.10
2022-10-22T22:53:24.249Z,7.10
2022-10-22T22:55:52.322Z,7.10
2022-10-22T22:58:20.406Z,7.10
2022-10-22T23:00:49.864Z,7.00
2022-10-22T23:03:18.087Z,7.10
2022-10-22T23:05:46.524Z,7.00
2022-10-22T23:08:14.742Z,7.00
2022-10-22T23:10:42.785Z,6.90
2022-10-22T23:13:10.998Z,6.90
2022-10-22T23:15:40.408Z,6.90
2022-10-22T23:18:09.903Z,6.80
2022-10-22T23:20:38.825Z,6.80
2022-10-22T23:23:07.201Z,6.70
2022-10-22T23:25:37.040Z,6.60
2022-10-22T23:28:05.213Z,6.60
2022-10-22T23:30:33.386Z,6.50
2022-10-22T23:33:01.474Z,6.50
2022-10-22T23:35:30.965Z,6.40
2022-10-22T23:37:59.022Z,6.40
2022-10-22T23:40:27.127Z,6.40
2022-10-22T23:42:55.681Z,6.30
2022-10-22T23:45:23.733Z,6.40
2022-10-22T23:47:51.937Z,6.40
2022-10-22T23:50:19.995Z,6.40
2022-10-22T23:52:49.507Z,6.40
2022-10-22T23:55:17.674Z,6.40
2022-10-22T23:57:45.879Z,6.40
